sensor_id;sensor_type;location;lat;lon;timestamp;temperature;humidity
774;DHT22;370;48.810;9.150;2022-12-24T00:00:59;12.00;10.30
774;DHT22;370;48.810;9.150;2022-12-24T00:03:26;12.00;10.00
774;DHT22;370;48.810;9.150;2022-12-24T00:05:53;12.00;9.80
774;DHT22;370;48.810;9.150;2022-12-24T00:08:20;12.00;10.70
774;DHT22;370;48.810;9.150;2022-12-24T00:10:49;12.00;11.40
774;DHT22;370;48.810;9.150;2022-12-24T00:13:16;12.00;11.90
774;DHT22;370;48.810;9.150;2022-12-24T00:15:43;11.90;11.80
774;DHT22;370;48.810;9.150;2022-12-24T00:18:11;12.00;11.10
774;DHT22;370;48.810;9.150;2022-12-24T00:20:38;12.00;9.10
774;DHT22;370;48.810;9.150;2022-12-24T00:23:05;12.00;7.90
774;DHT22;370;48.810;9.150;2022-12-24T00:25:31;12.10;7.00
774;DHT22;370;48.810;9.150;2022-12-24T00:27:59;12.20;6.50
774;DHT22;370;48.810;9.150;2022-12-24T00:30:25;12.10;6.50
774;DHT22;370;48.810;9.150;2022-12-24T00:32:52;12.20;6.50
774;DHT22;370;48.810;9.150;2022-12-24T00:35:20;12.20;6.50
774;DHT22;370;48.810;9.150;2022-12-24T00:37:47;12.20;6.50
774;DHT22;370;48.810;9.150;2022-12-24T00:40:14;12.20;6.60
774;DHT22;370;48.810;9.150;2022-12-24T00:42:41;12.10;6.50
774;DHT22;370;48.810;9.150;2022-12-24T00:45:09;12.10;6.50
774;DHT22;370;48.810;9.150;2022-12-24T00:47:36;12.10;6.50
774;DHT22;370;48.810;9.150;2022-12-24T00:50:03;12.10;6.50
774;DHT22;370;48.810;9.150;2022-12-24T00:52:32;12.00;6.40
774;DHT22;370;48.810;9.150;2022-12-24T00:54:58;12.00;6.40
774;DHT22;370;48.810;9.150;2022-12-24T00:57:25;11.80;6.70
774;DHT22;370;48.810;9.150;2022-12-24T00:59:52;11.80;7.20
774;DHT22;370;48.810;9.150;2022-12-24T01:02:19;11.70;8.00
774;DHT22;370;48.810;9.150;2022-12-24T01:04:46;11.70;8.50
774;DHT22;370;48.810;9.150;2022-12-24T01:07:31;11.70;9.00
774;DHT22;370;48.810;9.150;2022-12-24T01:09:58;11.70;9.70
774;DHT22;370;48.810;9.150;2022-12-24T01:12:25;11.80;9.30
774;DHT22;370;48.810;9.150;2022-12-24T01:14:52;11.80;10.10
774;DHT22;370;48.810;9.150;2022-12-24T01:17:18;11.90;11.00
774;DHT22;370;48.810;9.150;2022-12-24T01:19:45;11.90;10.70
774;DHT22;370;48.810;9.150;2022-12-24T01:22:12;11.90;10.60
774;DHT22;370;48.810;9.150;2022-12-24T01:24:42;12.00;9.70
774;DHT22;370;48.810;9.150;2022-12-24T01:27:09;12.00;10.20
774;DHT22;370;48.810;9.150;2022-12-24T01:29:36;12.00;10.20
774;DHT22;370;48.810;9.150;2022-12-24T01:32:03;12.00;10.80
774;DHT22;370;48.810;9.150;2022-12-24T01:34:30;12.00;10.70
774;DHT22;370;48.810;9.150;2022-12-24T01:36:57;12.10;11.80
774;DHT22;370;48.810;9.150;2022-12-24T01:39:24;12.10;12.50
774;DHT22;370;48.810;9.150;2022-12-24T01:41:52;12.10;14.90
774;DHT22;370;48.810;9.150;2022-12-24T01:44:40;11.90;20.90
774;DHT22;370;48.810;9.150;2022-12-24T01:47:11;11.50;29.30
774;DHT22;370;48.810;9.150;2022-12-24T01:49:42;11.10;34.30
774;DHT22;370;48.810;9.150;2022-12-24T01:52:13;11.00;37.10
774;DHT22;370;48.810;9.150;2022-12-24T01:54:43;10.80;38.90
774;DHT22;370;48.810;9.150;2022-12-24T01:57:16;10.80;41.20
774;DHT22;370;48.810;9.150;2022-12-24T01:59:45;10.70;40.90
774;DHT22;370;48.810;9.150;2022-12-24T02:02:13;10.60;43.10
774;DHT22;370;48.810;9.150;2022-12-24T02:04:43;10.60;45.80
774;DHT22;370;48.810;9.150;2022-12-24T02:07:12;10.60;44.00
774;DHT22;370;48.810;9.150;2022-12-24T02:09:39;10.60;47.10
774;DHT22;370;48.810;9.150;2022-12-24T02:12:06;10.60;47.70
774;DHT22;370;48.810;9.150;2022-12-24T02:14:36;10.60;50.80
774;DHT22;370;48.810;9.150;2022-12-24T02:17:12;10.60;49.30
774;DHT22;370;48.810;9.150;2022-12-24T02:20:16;10.50;49.50
774;DHT22;370;48.810;9.150;2022-12-24T02:23:02;10.40;50.00
774;DHT22;370;48.810;9.150;2022-12-24T02:25:44;10.30;49.10
774;DHT22;370;48.810;9.150;2022-12-24T02:28:28;10.20;49.70
774;DHT22;370;48.810;9.150;2022-12-24T02:31:07;10.10;50.70
774;DHT22;370;48.810;9.150;2022-12-24T02:33:39;10.10;51.50
774;DHT22;370;48.810;9.150;2022-12-24T02:36:14;10.00;50.60
774;DHT22;370;48.810;9.150;2022-12-24T02:38:48;10.00;50.60
774;DHT22;370;48.810;9.150;2022-12-24T02:41:18;10.00;50.60
774;DHT22;370;48.810;9.150;2022-12-24T02:43:47;9.90;51.50
774;DHT22;370;48.810;9.150;2022-12-24T02:46:18;9.90;52.80
774;DHT22;370;48.810;9.150;2022-12-24T02:48:47;9.90;51.50
774;DHT22;370;48.810;9.150;2022-12-24T02:51:15;9.80;51.40
774;DHT22;370;48.810;9.150;2022-12-24T02:53:41;9.70;51.30
774;DHT22;370;48.810;9.150;2022-12-24T02:56:32;9.70;51.30
774;DHT22;370;48.810;9.150;2022-12-24T02:59:27;9.70;51.00
774;DHT22;370;48.810;9.150;2022-12-24T03:02:07;9.60;51.20
774;DHT22;370;48.810;9.150;2022-12-24T03:04:43;9.60;51.20
774;DHT22;370;48.810;9.150;2022-12-24T03:07:17;9.50;52.70
774;DHT22;370;48.810;9.150;2022-12-24T03:10:10;9.50;53.80
774;DHT22;370;48.810;9.150;2022-12-24T03:12:42;9.40;55.50
774;DHT22;370;48.810;9.150;2022-12-24T03:15:13;9.50;54.40
774;DHT22;370;48.810;9.150;2022-12-24T03:17:44;9.40;53.00
774;DHT22;370;48.810;9.150;2022-12-24T03:20:13;9.50;54.50
774;DHT22;370;48.810;9.150;2022-12-24T03:22:41;9.60;53.80
774;DHT22;370;48.810;9.150;2022-12-24T03:25:09;9.60;52.70
774;DHT22;370;48.810;9.150;2022-12-24T03:27:36;9.60;52.00
774;DHT22;370;48.810;9.150;2022-12-24T03:30:08;9.60;51.80
774;DHT22;370;48.810;9.150;2022-12-24T03:32:36;9.60;52.60
774;DHT22;370;48.810;9.150;2022-12-24T03:35:05;9.60;53.00
774;DHT22;370;48.810;9.150;2022-12-24T03:37:32;9.60;53.10
774;DHT22;370;48.810;9.150;2022-12-24T03:39:59;9.70;52.70
774;DHT22;370;48.810;9.150;2022-12-24T03:42:26;9.80;51.40
774;DHT22;370;48.810;9.150;2022-12-24T03:44:52;9.80;50.70
774;DHT22;370;48.810;9.150;2022-12-24T03:47:19;9.80;49.50
774;DHT22;370;48.810;9.150;2022-12-24T03:49:46;9.80;49.90
774;DHT22;370;48.810;9.150;2022-12-24T03:52:14;9.80;50.40
774;DHT22;370;48.810;9.150;2022-12-24T03:54:40;9.80;50.20
774;DHT22;370;48.810;9.150;2022-12-24T03:57:07;9.90;49.80
774;DHT22;370;48.810;9.150;2022-12-24T03:59:34;9.90;49.00
774;DHT22;370;48.810;9.150;2022-12-24T04:02:01;9.90;48.60
774;DHT22;370;48.810;9.150;2022-12-24T04:04:27;9.90;47.70
774;DHT22;370;48.810;9.150;2022-12-24T04:06:55;9.90;47.70
774;DHT22;370;48.810;9.150;2022-12-24T04:09:22;10.00;46.00
774;DHT22;370;48.810;9.150;2022-12-24T04:11:49;10.00;44.20
774;DHT22;370;48.810;9.150;2022-12-24T04:14:16;10.00;43.40
774;DHT22;370;48.810;9.150;2022-12-24T04:16:43;10.00;43.00
774;DHT22;370;48.810;9.150;2022-12-24T04:19:09;10.00;42.60
774;DHT22;370;48.810;9.150;2022-12-24T04:21:36;10.00;43.10
774;DHT22;370;48.810;9.150;2022-12-24T04:24:03;10.00;41.10
774;DHT22;370;48.810;9.150;2022-12-24T04:26:31;10.00;40.70
774;DHT22;370;48.810;9.150;2022-12-24T04:28:58;10.00;41.00
774;DHT22;370;48.810;9.150;2022-12-24T04:31:25;10.00;40.70
774;DHT22;370;48.810;9.150;2022-12-24T04:33:51;10.00;40.70
774;DHT22;370;48.810;9.150;2022-12-24T04:36:19;10.10;41.80
774;DHT22;370;48.810;9.150;2022-12-24T04:38:47;10.10;41.60
774;DHT22;370;48.810;9.150;2022-12-24T04:41:16;10.20;42.70
774;DHT22;370;48.810;9.150;2022-12-24T04:43:45;10.30;44.30
774;DHT22;370;48.810;9.150;2022-12-24T04:46:14;10.30;43.60
774;DHT22;370;48.810;9.150;2022-12-24T04:48:42;10.30;43.60
774;DHT22;370;48.810;9.150;2022-12-24T04:51:10;10.30;43.70
774;DHT22;370;48.810;9.150;2022-12-24T04:53:37;10.30;43.40
774;DHT22;370;48.810;9.150;2022-12-24T04:56:07;10.30;42.60
774;DHT22;370;48.810;9.150;2022-12-24T04:58:34;10.30;42.90
774;DHT22;370;48.810;9.150;2022-12-24T05:01:03;10.30;43.80
774;DHT22;370;48.810;9.150;2022-12-24T05:03:30;10.20;44.20
774;DHT22;370;48.810;9.150;2022-12-24T05:06:00;10.20;43.40
774;DHT22;370;48.810;9.150;2022-12-24T05:08:27;10.10;43.50
774;DHT22;370;48.810;9.150;2022-12-24T05:10:55;10.10;43.30
774;DHT22;370;48.810;9.150;2022-12-24T05:13:22;10.00;43.20
774;DHT22;370;48.810;9.150;2022-12-24T05:15:48;9.90;44.30
774;DHT22;370;48.810;9.150;2022-12-24T05:18:16;9.90;44.10
774;DHT22;370;48.810;9.150;2022-12-24T05:20:44;9.80;43.50
774;DHT22;370;48.810;9.150;2022-12-24T05:23:14;9.70;41.40
774;DHT22;370;48.810;9.150;2022-12-24T05:25:59;9.70;39.60
774;DHT22;370;48.810;9.150;2022-12-24T05:28:43;9.70;37.30
774;DHT22;370;48.810;9.150;2022-12-24T05:31:10;9.70;36.00
774;DHT22;370;48.810;9.150;2022-12-24T05:33:38;9.60;35.40
774;DHT22;370;48.810;9.150;2022-12-24T05:36:05;9.60;33.70
774;DHT22;370;48.810;9.150;2022-12-24T05:38:32;9.60;30.20
774;DHT22;370;48.810;9.150;2022-12-24T05:40:58;9.60;31.00
774;DHT22;370;48.810;9.150;2022-12-24T05:43:25;9.60;31.00
774;DHT22;370;48.810;9.150;2022-12-24T05:45:57;9.60;31.00
774;DHT22;370;48.810;9.150;2022-12-24T05:48:23;9.60;29.50
774;DHT22;370;48.810;9.150;2022-12-24T05:50:52;9.50;29.10
774;DHT22;370;48.810;9.150;2022-12-24T05:53:19;9.60;28.70
774;DHT22;370;48.810;9.150;2022-12-24T05:55:46;9.50;29.00
774;DHT22;370;48.810;9.150;2022-12-24T05:58:13;9.50;27.60
774;DHT22;370;48.810;9.150;2022-12-24T06:00:39;9.50;26.80
774;DHT22;370;48.810;9.150;2022-12-24T06:03:06;9.50;26.80
774;DHT22;370;48.810;9.150;2022-12-24T06:05:33;9.50;27.00
774;DHT22;370;48.810;9.150;2022-12-24T06:08:01;9.50;25.90
774;DHT22;370;48.810;9.150;2022-12-24T06:10:27;9.50;25.40
774;DHT22;370;48.810;9.150;2022-12-24T06:12:54;9.50;25.70
774;DHT22;370;48.810;9.150;2022-12-24T06:15:21;9.50;24.70
774;DHT22;370;48.810;9.150;2022-12-24T06:17:48;9.60;23.90
774;DHT22;370;48.810;9.150;2022-12-24T06:20:14;9.60;23.60
774;DHT22;370;48.810;9.150;2022-12-24T06:22:41;9.60;23.60
774;DHT22;370;48.810;9.150;2022-12-24T06:25:09;9.70;22.80
774;DHT22;370;48.810;9.150;2022-12-24T06:27:37;9.70;20.50
774;DHT22;370;48.810;9.150;2022-12-24T06:30:05;9.80;19.20
774;DHT22;370;48.810;9.150;2022-12-24T06:32:31;9.90;19.50
774;DHT22;370;48.810;9.150;2022-12-24T06:34:58;9.90;18.90
774;DHT22;370;48.810;9.150;2022-12-24T06:37:25;10.00;16.40
774;DHT22;370;48.810;9.150;2022-12-24T06:39:51;10.10;16.00
774;DHT22;370;48.810;9.150;2022-12-24T06:42:19;10.10;17.00
774;DHT22;370;48.810;9.150;2022-12-24T06:44:46;10.00;17.60
774;DHT22;370;48.810;9.150;2022-12-24T06:47:13;10.00;18.60
774;DHT22;370;48.810;9.150;2022-12-24T06:49:39;10.10;19.10
774;DHT22;370;48.810;9.150;2022-12-24T06:52:06;10.00;20.20
774;DHT22;370;48.810;9.150;2022-12-24T06:54:33;9.90;22.90
774;DHT22;370;48.810;9.150;2022-12-24T06:56:59;9.80;24.30
774;DHT22;370;48.810;9.150;2022-12-24T06:59:27;9.90;25.20
774;DHT22;370;48.810;9.150;2022-12-24T07:01:54;9.90;25.10
774;DHT22;370;48.810;9.150;2022-12-24T07:04:21;10.10;23.40
774;DHT22;370;48.810;9.150;2022-12-24T07:06:47;10.00;24.10
774;DHT22;370;48.810;9.150;2022-12-24T07:09:14;10.00;25.20
774;DHT22;370;48.810;9.150;2022-12-24T07:11:41;10.10;24.90
774;DHT22;370;48.810;9.150;2022-12-24T07:14:07;10.10;26.10
774;DHT22;370;48.810;9.150;2022-12-24T07:16:36;10.00;27.00
774;DHT22;370;48.810;9.150;2022-12-24T07:19:02;10.00;26.50
774;DHT22;370;48.810;9.150;2022-12-24T07:21:29;9.90;28.10
774;DHT22;370;48.810;9.150;2022-12-24T07:23:56;10.00;26.90
774;DHT22;370;48.810;9.150;2022-12-24T07:26:22;9.90;26.80
774;DHT22;370;48.810;9.150;2022-12-24T07:28:49;9.90;26.70
774;DHT22;370;48.810;9.150;2022-12-24T07:31:16;9.80;26.40
774;DHT22;370;48.810;9.150;2022-12-24T07:33:44;9.80;26.40
774;DHT22;370;48.810;9.150;2022-12-24T07:36:16;9.80;25.70
774;DHT22;370;48.810;9.150;2022-12-24T07:38:43;9.70;26.40
774;DHT22;370;48.810;9.150;2022-12-24T07:41:10;9.80;26.20
774;DHT22;370;48.810;9.150;2022-12-24T07:43:37;9.80;25.80
774;DHT22;370;48.810;9.150;2022-12-24T07:46:04;9.70;25.50
774;DHT22;370;48.810;9.150;2022-12-24T07:48:31;9.70;26.50
774;DHT22;370;48.810;9.150;2022-12-24T07:51:00;9.70;26.10
774;DHT22;370;48.810;9.150;2022-12-24T07:53:28;9.80;26.00
774;DHT22;370;48.810;9.150;2022-12-24T07:55:55;9.80;26.30
774;DHT22;370;48.810;9.150;2022-12-24T07:58:22;9.90;25.70
774;DHT22;370;48.810;9.150;2022-12-24T08:00:53;10.00;24.90
774;DHT22;370;48.810;9.150;2022-12-24T08:03:20;9.90;25.20
774;DHT22;370;48.810;9.150;2022-12-24T08:05:47;10.00;24.30
774;DHT22;370;48.810;9.150;2022-12-24T08:08:15;10.00;23.80
774;DHT22;370;48.810;9.150;2022-12-24T08:10:44;10.00;23.50
774;DHT22;370;48.810;9.150;2022-12-24T08:13:11;10.00;23.80
774;DHT22;370;48.810;9.150;2022-12-24T08:15:37;10.00;23.50
774;DHT22;370;48.810;9.150;2022-12-24T08:18:04;10.10;23.10
774;DHT22;370;48.810;9.150;2022-12-24T08:20:31;10.10;23.20
774;DHT22;370;48.810;9.150;2022-12-24T08:22:58;10.10;22.30
774;DHT22;370;48.810;9.150;2022-12-24T08:25:26;10.20;22.30
774;DHT22;370;48.810;9.150;2022-12-24T08:27:52;10.30;20.80
774;DHT22;370;48.810;9.150;2022-12-24T08:30:19;10.40;20.50
774;DHT22;370;48.810;9.150;2022-12-24T08:32:46;10.50;18.80
774;DHT22;370;48.810;9.150;2022-12-24T08:35:13;10.60;18.00
774;DHT22;370;48.810;9.150;2022-12-24T08:37:39;10.70;17.50
774;DHT22;370;48.810;9.150;2022-12-24T08:40:07;10.80;16.70
774;DHT22;370;48.810;9.150;2022-12-24T08:42:36;11.00;15.50
774;DHT22;370;48.810;9.150;2022-12-24T08:45:03;11.00;15.40
774;DHT22;370;48.810;9.150;2022-12-24T08:47:30;11.10;14.50
774;DHT22;370;48.810;9.150;2022-12-24T08:49:56;11.20;14.60
774;DHT22;370;48.810;9.150;2022-12-24T08:52:23;11.20;15.00
774;DHT22;370;48.810;9.150;2022-12-24T08:54:49;11.30;14.70
774;DHT22;370;48.810;9.150;2022-12-24T08:57:16;11.30;14.70
774;DHT22;370;48.810;9.150;2022-12-24T08:59:45;11.30;14.70
774;DHT22;370;48.810;9.150;2022-12-24T09:02:12;11.20;14.00
774;DHT22;370;48.810;9.150;2022-12-24T09:04:39;11.10;14.60
774;DHT22;370;48.810;9.150;2022-12-24T09:07:06;11.10;14.50
774;DHT22;370;48.810;9.150;2022-12-24T09:09:33;11.10;14.00
774;DHT22;370;48.810;9.150;2022-12-24T09:12:00;11.10;13.70
774;DHT22;370;48.810;9.150;2022-12-24T09:14:27;11.20;14.10
774;DHT22;370;48.810;9.150;2022-12-24T09:16:55;11.20;13.20
774;DHT22;370;48.810;9.150;2022-12-24T09:19:22;11.40;13.40
774;DHT22;370;48.810;9.150;2022-12-24T09:21:48;11.60;11.80
774;DHT22;370;48.810;9.150;2022-12-24T09:24:16;11.80;10.70
774;DHT22;370;48.810;9.150;2022-12-24T09:26:42;12.20;9.30
774;DHT22;370;48.810;9.150;2022-12-24T09:29:14;13.00;7.10
774;DHT22;370;48.810;9.150;2022-12-24T09:31:41;13.50;3.90
774;DHT22;370;48.810;9.150;2022-12-24T09:34:09;13.70;2.60
774;DHT22;370;48.810;9.150;2022-12-24T09:36:35;13.90;1.00
774;DHT22;370;48.810;9.150;2022-12-24T09:39:02;14.50;1.00
774;DHT22;370;48.810;9.150;2022-12-24T09:41:40;14.80;1.00
774;DHT22;370;48.810;9.150;2022-12-24T09:44:19;15.60;1.00
774;DHT22;370;48.810;9.150;2022-12-24T09:46:50;16.90;1.00
774;DHT22;370;48.810;9.150;2022-12-24T09:49:22;17.60;1.00
774;DHT22;370;48.810;9.150;2022-12-24T09:51:52;18.20;1.00
774;DHT22;370;48.810;9.150;2022-12-24T09:54:24;17.80;1.00
774;DHT22;370;48.810;9.150;2022-12-24T09:56:51;18.70;1.00
774;DHT22;370;48.810;9.150;2022-12-24T09:59:22;20.60;1.00
774;DHT22;370;48.810;9.150;2022-12-24T10:01:51;21.90;1.00
774;DHT22;370;48.810;9.150;2022-12-24T10:04:23;23.50;1.00
774;DHT22;370;48.810;9.150;2022-12-24T10:06:56;23.90;1.00
774;DHT22;370;48.810;9.150;2022-12-24T10:09:32;22.90;1.00
774;DHT22;370;48.810;9.150;2022-12-24T10:12:10;21.70;1.00
774;DHT22;370;48.810;9.150;2022-12-24T10:14:54;21.00;1.00
774;DHT22;370;48.810;9.150;2022-12-24T10:17:35;20.10;1.00
774;DHT22;370;48.810;9.150;2022-12-24T10:20:31;19.20;1.00
774;DHT22;370;48.810;9.150;2022-12-24T10:23:04;18.60;1.00
774;DHT22;370;48.810;9.150;2022-12-24T10:25:37;17.80;1.00
774;DHT22;370;48.810;9.150;2022-12-24T10:28:13;17.50;1.00
774;DHT22;370;48.810;9.150;2022-12-24T10:30:41;17.00;1.00
774;DHT22;370;48.810;9.150;2022-12-24T10:33:15;16.80;1.00
774;DHT22;370;48.810;9.150;2022-12-24T10:35:48;16.40;1.00
774;DHT22;370;48.810;9.150;2022-12-24T10:38:16;16.20;1.00
774;DHT22;370;48.810;9.150;2022-12-24T10:40:45;16.10;1.00
774;DHT22;370;48.810;9.150;2022-12-24T10:43:15;16.00;1.00
774;DHT22;370;48.810;9.150;2022-12-24T10:45:45;16.00;1.00
774;DHT22;370;48.810;9.150;2022-12-24T10:48:18;15.90;1.00
774;DHT22;370;48.810;9.150;2022-12-24T10:50:53;16.00;1.00
774;DHT22;370;48.810;9.150;2022-12-24T10:53:25;16.10;1.00
774;DHT22;370;48.810;9.150;2022-12-24T10:56:01;16.10;1.00
774;DHT22;370;48.810;9.150;2022-12-24T10:58:29;15.80;1.00
774;DHT22;370;48.810;9.150;2022-12-24T11:00:56;15.50;1.00
774;DHT22;370;48.810;9.150;2022-12-24T11:03:29;15.20;1.00
774;DHT22;370;48.810;9.150;2022-12-24T11:06:03;15.10;1.00
774;DHT22;370;48.810;9.150;2022-12-24T11:08:30;15.30;1.00
774;DHT22;370;48.810;9.150;2022-12-24T11:11:00;15.30;1.00
774;DHT22;370;48.810;9.150;2022-12-24T11:13:28;15.10;1.00
774;DHT22;370;48.810;9.150;2022-12-24T11:16:01;14.80;1.00
774;DHT22;370;48.810;9.150;2022-12-24T11:18:30;14.50;1.00
774;DHT22;370;48.810;9.150;2022-12-24T11:20:57;14.40;1.00
774;DHT22;370;48.810;9.150;2022-12-24T11:23:27;14.30;1.00
774;DHT22;370;48.810;9.150;2022-12-24T11:25:57;14.20;1.00
774;DHT22;370;48.810;9.150;2022-12-24T11:28:25;13.90;1.00
774;DHT22;370;48.810;9.150;2022-12-24T11:30:59;13.80;1.00
774;DHT22;370;48.810;9.150;2022-12-24T11:33:27;13.60;1.00
774;DHT22;370;48.810;9.150;2022-12-24T11:36:01;13.60;1.00
774;DHT22;370;48.810;9.150;2022-12-24T11:38:32;13.70;1.00
774;DHT22;370;48.810;9.150;2022-12-24T11:41:02;13.60;1.00
774;DHT22;370;48.810;9.150;2022-12-24T11:43:35;13.50;1.00
774;DHT22;370;48.810;9.150;2022-12-24T11:46:16;13.50;1.00
774;DHT22;370;48.810;9.150;2022-12-24T11:48:44;13.40;1.00
774;DHT22;370;48.810;9.150;2022-12-24T11:51:22;13.60;1.00
774;DHT22;370;48.810;9.150;2022-12-24T11:53:57;13.60;1.00
774;DHT22;370;48.810;9.150;2022-12-24T11:56:32;13.70;1.00
774;DHT22;370;48.810;9.150;2022-12-24T11:59:08;13.80;1.00
774;DHT22;370;48.810;9.150;2022-12-24T12:01:39;13.90;1.00
774;DHT22;370;48.810;9.150;2022-12-24T12:04:13;13.80;1.00
774;DHT22;370;48.810;9.150;2022-12-24T12:06:44;13.80;1.00
774;DHT22;370;48.810;9.150;2022-12-24T12:09:19;13.90;1.00
774;DHT22;370;48.810;9.150;2022-12-24T12:11:49;13.90;1.00
774;DHT22;370;48.810;9.150;2022-12-24T12:14:20;14.10;1.00
774;DHT22;370;48.810;9.150;2022-12-24T12:16:52;14.10;1.00
774;DHT22;370;48.810;9.150;2022-12-24T12:22:55;13.90;1.00
774;DHT22;370;48.810;9.150;2022-12-24T12:25:29;14.10;1.00
774;DHT22;370;48.810;9.150;2022-12-24T12:27:59;14.30;1.00
774;DHT22;370;48.810;9.150;2022-12-24T12:30:28;14.40;1.00
774;DHT22;370;48.810;9.150;2022-12-24T12:32:59;14.50;1.00
774;DHT22;370;48.810;9.150;2022-12-24T12:35:30;14.50;1.00
774;DHT22;370;48.810;9.150;2022-12-24T12:38:00;14.40;1.00
774;DHT22;370;48.810;9.150;2022-12-24T12:41:00;14.40;1.00
774;DHT22;370;48.810;9.150;2022-12-24T12:43:40;14.20;1.00
774;DHT22;370;48.810;9.150;2022-12-24T12:46:18;14.10;1.00
774;DHT22;370;48.810;9.150;2022-12-24T12:48:55;14.10;1.00
774;DHT22;370;48.810;9.150;2022-12-24T12:51:34;14.00;1.00
774;DHT22;370;48.810;9.150;2022-12-24T12:54:24;14.00;1.00
774;DHT22;370;48.810;9.150;2022-12-24T12:57:00;14.00;1.00
774;DHT22;370;48.810;9.150;2022-12-24T12:59:32;14.00;1.00
774;DHT22;370;48.810;9.150;2022-12-24T13:02:13;14.20;1.00
774;DHT22;370;48.810;9.150;2022-12-24T13:05:12;14.50;1.00
774;DHT22;370;48.810;9.150;2022-12-24T13:07:54;14.90;1.00
774;DHT22;370;48.810;9.150;2022-12-24T13:10:45;15.20;1.00
774;DHT22;370;48.810;9.150;2022-12-24T13:19:29;16.10;1.00
774;DHT22;370;48.810;9.150;2022-12-24T13:22:00;16.20;1.00
774;DHT22;370;48.810;9.150;2022-12-24T13:24:28;16.20;1.00
774;DHT22;370;48.810;9.150;2022-12-24T13:27:01;16.10;1.00
774;DHT22;370;48.810;9.150;2022-12-24T13:29:38;15.80;1.00
774;DHT22;370;48.810;9.150;2022-12-24T13:32:37;15.60;1.00
774;DHT22;370;48.810;9.150;2022-12-24T13:35:33;15.20;1.00
774;DHT22;370;48.810;9.150;2022-12-24T13:38:29;14.80;1.00
774;DHT22;370;48.810;9.150;2022-12-24T13:44:13;14.50;1.00
774;DHT22;370;48.810;9.150;2022-12-24T13:46:56;14.30;1.00
774;DHT22;370;48.810;9.150;2022-12-24T13:49:31;14.20;1.00
774;DHT22;370;48.810;9.150;2022-12-24T13:52:23;14.10;1.00
774;DHT22;370;48.810;9.150;2022-12-24T13:55:15;14.10;1.00
774;DHT22;370;48.810;9.150;2022-12-24T13:57:52;14.00;1.00
774;DHT22;370;48.810;9.150;2022-12-24T14:00:36;14.00;1.00
774;DHT22;370;48.810;9.150;2022-12-24T14:03:22;14.00;1.00
774;DHT22;370;48.810;9.150;2022-12-24T14:05:53;13.90;1.00
774;DHT22;370;48.810;9.150;2022-12-24T14:08:30;13.90;1.00
774;DHT22;370;48.810;9.150;2022-12-24T14:11:04;13.70;1.00
774;DHT22;370;48.810;9.150;2022-12-24T14:16:41;13.70;1.00
774;DHT22;370;48.810;9.150;2022-12-24T14:19:13;13.70;1.00
774;DHT22;370;48.810;9.150;2022-12-24T14:21:42;13.80;1.00
774;DHT22;370;48.810;9.150;2022-12-24T14:24:14;14.00;1.00
774;DHT22;370;48.810;9.150;2022-12-24T14:26:45;14.10;1.00
774;DHT22;370;48.810;9.150;2022-12-24T14:29:16;14.10;1.00
774;DHT22;370;48.810;9.150;2022-12-24T14:31:50;14.20;1.00
774;DHT22;370;48.810;9.150;2022-12-24T14:34:19;14.30;1.00
774;DHT22;370;48.810;9.150;2022-12-24T14:36:47;14.20;1.00
774;DHT22;370;48.810;9.150;2022-12-24T14:39:22;14.10;1.00
774;DHT22;370;48.810;9.150;2022-12-24T14:42:00;14.10;1.00
774;DHT22;370;48.810;9.150;2022-12-24T14:44:39;14.00;1.00
774;DHT22;370;48.810;9.150;2022-12-24T14:47:27;13.60;1.00
774;DHT22;370;48.810;9.150;2022-12-24T14:52:48;13.60;1.00
774;DHT22;370;48.810;9.150;2022-12-24T14:55:29;13.50;1.00
774;DHT22;370;48.810;9.150;2022-12-24T15:01:01;13.30;1.00
774;DHT22;370;48.810;9.150;2022-12-24T15:03:30;13.10;2.00
774;DHT22;370;48.810;9.150;2022-12-24T15:06:02;13.00;2.10
774;DHT22;370;48.810;9.150;2022-12-24T15:08:32;12.80;2.60
774;DHT22;370;48.810;9.150;2022-12-24T15:11:04;12.70;3.40
774;DHT22;370;48.810;9.150;2022-12-24T15:13:34;12.50;5.30
774;DHT22;370;48.810;9.150;2022-12-24T15:16:03;12.20;8.40
774;DHT22;370;48.810;9.150;2022-12-24T15:18:32;12.20;9.90
774;DHT22;370;48.810;9.150;2022-12-24T15:21:04;12.20;10.00
774;DHT22;370;48.810;9.150;2022-12-24T15:23:34;12.10;10.50
774;DHT22;370;48.810;9.150;2022-12-24T15:26:14;12.00;12.20
774;DHT22;370;48.810;9.150;2022-12-24T15:28:42;12.00;13.50
774;DHT22;370;48.810;9.150;2022-12-24T15:31:12;11.80;14.60
774;DHT22;370;48.810;9.150;2022-12-24T15:33:39;11.70;14.90
774;DHT22;370;48.810;9.150;2022-12-24T15:36:08;11.60;15.90
774;DHT22;370;48.810;9.150;2022-12-24T15:38:37;11.60;16.50
774;DHT22;370;48.810;9.150;2022-12-24T15:41:13;11.50;17.00
774;DHT22;370;48.810;9.150;2022-12-24T15:43:43;11.50;17.10
774;DHT22;370;48.810;9.150;2022-12-24T15:46:20;11.40;19.00
774;DHT22;370;48.810;9.150;2022-12-24T15:48:48;11.10;21.30
774;DHT22;370;48.810;9.150;2022-12-24T15:51:23;11.20;21.70
774;DHT22;370;48.810;9.150;2022-12-24T15:53:56;11.20;21.50
774;DHT22;370;48.810;9.150;2022-12-24T15:56:38;11.20;21.30
774;DHT22;370;48.810;9.150;2022-12-24T15:59:18;11.10;21.30
774;DHT22;370;48.810;9.150;2022-12-24T16:01:47;11.00;22.20
774;DHT22;370;48.810;9.150;2022-12-24T16:04:15;11.00;22.90
774;DHT22;370;48.810;9.150;2022-12-24T16:06:55;10.90;22.90
774;DHT22;370;48.810;9.150;2022-12-24T16:09:38;10.80;23.90
774;DHT22;370;48.810;9.150;2022-12-24T16:15:27;10.60;25.20
774;DHT22;370;48.810;9.150;2022-12-24T16:17:54;10.40;27.10
774;DHT22;370;48.810;9.150;2022-12-24T16:20:21;10.50;26.80
774;DHT22;370;48.810;9.150;2022-12-24T16:22:50;10.50;26.40
774;DHT22;370;48.810;9.150;2022-12-24T16:25:24;10.50;26.30
774;DHT22;370;48.810;9.150;2022-12-24T16:27:52;10.50;26.50
774;DHT22;370;48.810;9.150;2022-12-24T16:30:19;10.50;26.80
774;DHT22;370;48.810;9.150;2022-12-24T16:32:48;10.50;27.10
774;DHT22;370;48.810;9.150;2022-12-24T16:35:24;10.50;27.50
774;DHT22;370;48.810;9.150;2022-12-24T16:37:53;10.50;27.20
774;DHT22;370;48.810;9.150;2022-12-24T16:40:20;10.50;27.20
774;DHT22;370;48.810;9.150;2022-12-24T16:42:47;10.40;27.80
774;DHT22;370;48.810;9.150;2022-12-24T16:45:34;10.50;27.60
774;DHT22;370;48.810;9.150;2022-12-24T16:48:02;10.50;27.70
774;DHT22;370;48.810;9.150;2022-12-24T16:50:31;10.50;28.10
774;DHT22;370;48.810;9.150;2022-12-24T16:52:59;10.50;28.50
774;DHT22;370;48.810;9.150;2022-12-24T16:55:26;10.50;28.00
774;DHT22;370;48.810;9.150;2022-12-24T16:57:52;10.50;28.10
774;DHT22;370;48.810;9.150;2022-12-24T17:00:21;10.50;28.00
774;DHT22;370;48.810;9.150;2022-12-24T17:06:11;10.60;27.10
774;DHT22;370;48.810;9.150;2022-12-24T17:08:39;10.60;25.90
774;DHT22;370;48.810;9.150;2022-12-24T17:11:06;10.40;28.50
774;DHT22;370;48.810;9.150;2022-12-24T17:13:33;10.50;27.80
774;DHT22;370;48.810;9.150;2022-12-24T17:16:00;10.50;27.90
774;DHT22;370;48.810;9.150;2022-12-24T17:18:27;10.60;26.80
774;DHT22;370;48.810;9.150;2022-12-24T17:20:57;10.50;26.20
774;DHT22;370;48.810;9.150;2022-12-24T17:23:25;10.60;25.50
774;DHT22;370;48.810;9.150;2022-12-24T17:26:02;10.60;25.10
774;DHT22;370;48.810;9.150;2022-12-24T17:28:29;10.60;25.20
774;DHT22;370;48.810;9.150;2022-12-24T17:30:56;10.60;25.70
774;DHT22;370;48.810;9.150;2022-12-24T17:33:23;10.60;26.10
774;DHT22;370;48.810;9.150;2022-12-24T17:35:50;10.60;26.10